Time;durP1;ratioP1;P1;durP2;ratioP2;P2;SDS_P1;SDS_P2;PMS_P1;PMS_P2;Temp;Humidity;BMP_temperature;BMP_pressure;BME280_temperature;BME280_humidity;BME280_pressure;Samples;Min_cycle;Max_cycle;Signal;HPM_P1;HPM_P2
2024/03/21 00:00:44;;;;;;;15.02;8.30;;;13.60;89.00;;;;;;5036554;28;20411;-71
2024/03/21 00:03:10;;;;;;;18.60;7.78;;;13.70;89.00;;;;;;5032094;28;20032;-71
2024/03/21 00:05:36;;;;;;;15.57;7.43;;;13.70;89.40;;;;;;5036927;28;20054;-71
2024/03/21 00:08:02;;;;;;;15.18;7.43;;;13.70;89.70;;;;;;5037462;28;20021;-72
2024/03/21 00:10:29;;;;;;;15.55;7.00;;;13.70;90.10;;;;;;5040600;28;20037;-71
2024/03/21 00:12:54;;;;;;;16.05;7.05;;;13.70;90.30;;;;;;5035820;28;20548;-71
2024/03/21 00:15:21;;;;;;;13.95;7.07;;;13.70;89.80;;;;;;5041859;28;20039;-71
2024/03/21 00:17:47;;;;;;;15.25;7.43;;;13.70;89.80;;;;;;5039399;28;20029;-71
2024/03/21 00:20:14;;;;;;;14.32;7.07;;;13.70;89.70;;;;;;5039063;28;20716;-71
2024/03/21 00:22:42;;;;;;;16.95;7.47;;;13.70;90.00;;;;;;5038428;28;20068;-71
2024/03/21 00:25:09;;;;;;;17.77;8.13;;;13.70;90.20;;;;;;5040136;28;20072;-71
2024/03/21 00:27:36;;;;;;;13.18;6.88;;;13.70;90.20;;;;;;5039609;28;20060;-71
2024/03/21 00:30:04;;;;;;;16.25;7.75;;;13.70;90.40;;;;;;5038508;28;20028;-71
2024/03/21 00:32:30;;;;;;;19.98;8.98;;;13.70;90.60;;;;;;5040018;28;20040;-71
2024/03/21 00:34:56;;;;;;;18.77;7.78;;;13.70;90.70;;;;;;5039788;28;20120;-69
2024/03/21 00:37:22;;;;;;;15.98;8.43;;;13.70;91.00;;;;;;5038000;28;20148;-70
2024/03/21 00:39:49;;;;;;;15.00;7.43;;;13.70;91.20;;;;;;5041842;28;20033;-71
2024/03/21 00:42:15;;;;;;;12.43;7.28;;;13.60;91.50;;;;;;5044449;28;20037;-71
2024/03/21 00:44:42;;;;;;;11.10;6.90;;;13.60;91.70;;;;;;5039897;28;20029;-70
2024/03/21 00:47:08;;;;;;;13.57;7.13;;;13.60;91.90;;;;;;5041343;28;20029;-69
2024/03/21 00:49:34;;;;;;;13.48;6.88;;;13.60;92.40;;;;;;5045114;28;20028;-71
2024/03/21 00:52:01;;;;;;;11.23;6.82;;;13.50;92.40;;;;;;5039837;28;20028;-70
2024/03/21 00:54:27;;;;;;;12.85;7.80;;;13.50;92.60;;;;;;5038443;28;20037;-70
2024/03/21 00:56:53;;;;;;;19.20;8.98;;;13.50;92.70;;;;;;5043495;28;20738;-70
2024/03/21 00:59:21;;;;;;;13.30;7.45;;;13.50;92.70;;;;;;5042168;28;20033;-71
2024/03/21 01:01:48;;;;;;;13.10;7.70;;;13.40;92.80;;;;;;5038403;28;20140;-70
2024/03/21 01:04:14;;;;;;;15.23;7.85;;;13.40;93.00;;;;;;5044758;28;20033;-72
2024/03/21 01:06:40;;;;;;;19.42;9.52;;;13.40;93.00;;;;;;5044291;28;20042;-71
2024/03/21 01:09:08;;;;;;;15.15;8.20;;;13.40;93.20;;;;;;5042938;28;20086;-71
2024/03/21 01:11:34;;;;;;;19.40;9.15;;;13.40;93.30;;;;;;5042452;28;20025;-71
2024/03/21 01:14:00;;;;;;;18.58;8.80;;;13.40;93.30;;;;;;5044191;28;20737;-71
2024/03/21 01:16:27;;;;;;;21.17;9.52;;;13.40;93.60;;;;;;5040804;28;20109;-71
2024/03/21 01:18:53;;;;;;;19.90;8.95;;;13.30;93.80;;;;;;5042292;28;20036;-72
2024/03/21 01:21:19;;;;;;;18.58;9.15;;;13.40;94.20;;;;;;5041302;28;20389;-71
2024/03/21 01:23:44;;;;;;;19.75;10.23;;;13.40;94.60;;;;;;5041942;28;20035;-71
2024/03/21 01:26:11;;;;;;;17.35;9.43;;;13.40;95.00;;;;;;5041001;28;20076;-70
2024/03/21 01:28:37;;;;;;;18.42;8.60;;;13.30;95.20;;;;;;5047349;28;20055;-71
2024/03/21 01:31:14;;;;;;;17.80;9.23;;;13.30;95.40;;;;;;5040800;28;20686;-70
2024/03/21 01:33:44;;;;;;;14.02;7.45;;;13.20;95.60;;;;;;5039399;28;20049;-70
2024/03/21 01:36:10;;;;;;;14.23;7.53;;;13.20;95.90;;;;;;5041698;28;20063;-71
2024/03/21 01:38:39;;;;;;;13.45;7.50;;;13.20;96.20;;;;;;5040598;28;20111;-70
2024/03/21 01:41:06;;;;;;;15.32;8.30;;;13.10;96.70;;;;;;5038713;28;20037;-70
2024/03/21 01:43:34;;;;;;;14.55;8.25;;;13.10;96.90;;;;;;5037398;28;20070;-69
2024/03/21 01:46:19;;;;;;;14.48;8.32;;;13.10;97.10;;;;;;5037044;28;20095;-71
2024/03/21 01:48:47;;;;;;;14.35;8.05;;;13.10;97.60;;;;;;5040286;28;20112;-71
2024/03/21 01:51:21;;;;;;;15.90;7.93;;;13.00;98.00;;;;;;5039370;28;20425;-70
2024/03/21 01:53:48;;;;;;;17.00;8.50;;;13.00;98.50;;;;;;5040730;28;20029;-71
2024/03/21 01:56:14;;;;;;;12.75;7.57;;;13.00;98.70;;;;;;5042174;28;20020;-70
2024/03/21 01:58:40;;;;;;;13.20;7.50;;;13.00;99.10;;;;;;5042525;28;20746;-70
2024/03/21 02:01:18;;;;;;;16.67;9.10;;;12.90;99.50;;;;;;5039525;28;20021;-71
2024/03/21 02:03:43;;;;;;;18.52;9.05;;;12.90;99.90;;;;;;5042395;28;20051;-71
2024/03/21 02:06:09;;;;;;;16.17;7.53;;;12.90;99.90;;;;;;5041424;28;20484;-72
2024/03/21 02:08:35;;;;;;;13.07;8.50;;;12.90;99.90;;;;;;5040709;28;20033;-72
2024/03/21 02:11:02;;;;;;;16.23;8.52;;;12.90;99.90;;;;;;5043841;28;20136;-70
2024/03/21 02:13:28;;;;;;;14.80;8.48;;;12.90;99.90;;;;;;5042701;28;20028;-69
2024/03/21 02:15:54;;;;;;;15.65;8.02;;;12.90;99.90;;;;;;5041821;28;20119;-71
2024/03/21 02:18:19;;;;;;;18.02;9.18;;;12.90;99.90;;;;;;5036358;28;20036;-71
2024/03/21 02:20:45;;;;;;;20.55;9.45;;;12.90;99.90;;;;;;5039767;28;20033;-70
2024/03/21 02:23:11;;;;;;;18.00;9.13;;;12.90;99.90;;;;;;5042152;28;20028;-69
2024/03/21 02:25:37;;;;;;;20.50;9.93;;;12.90;99.90;;;;;;5040018;28;20091;-70
2024/03/21 02:28:06;;;;;;;19.23;9.05;;;12.90;99.90;;;;;;5041553;28;20119;-72
2024/03/21 02:30:32;;;;;;;20.73;9.55;;;12.90;99.90;;;;;;5041279;28;20098;-70
2024/03/21 02:32:58;;;;;;;16.23;9.20;;;12.90;99.90;;;;;;5041633;28;20033;-71
2024/03/21 02:35:24;;;;;;;15.85;8.30;;;12.80;99.90;;;;;;5044421;28;20401;-71
2024/03/21 02:37:50;;;;;;;13.27;8.02;;;12.80;99.90;;;;;;5042485;28;20025;-71
2024/03/21 02:40:16;;;;;;;15.32;7.65;;;12.80;99.90;;;;;;5038385;28;20036;-70
2024/03/21 02:42:42;;;;;;;11.65;7.43;;;12.80;99.90;;;;;;5040798;28;20121;-69
2024/03/21 02:45:08;;;;;;;13.68;7.85;;;12.70;99.90;;;;;;5041788;28;20043;-70
2024/03/21 02:47:35;;;;;;;13.10;7.13;;;12.70;99.90;;;;;;5040132;28;20163;-69
2024/03/21 02:50:01;;;;;;;16.17;8.98;;;12.70;99.90;;;;;;5040442;28;20028;-70
2024/03/21 02:52:27;;;;;;;15.93;8.07;;;12.70;99.90;;;;;;5040134;28;20044;-70
2024/03/21 02:54:52;;;;;;;15.40;7.85;;;12.70;99.90;;;;;;5041085;28;20036;-71
2024/03/21 02:57:18;;;;;;;12.82;7.47;;;12.70;99.90;;;;;;5041512;28;20041;-71
2024/03/21 02:59:44;;;;;;;13.90;8.18;;;12.70;99.90;;;;;;5038343;28;20033;-70
2024/03/21 03:02:10;;;;;;;14.43;8.70;;;12.70;99.90;;;;;;5040340;28;20144;-72
2024/03/21 03:04:36;;;;;;;17.73;9.40;;;12.70;99.90;;;;;;5040904;28;20025;-72
2024/03/21 03:07:02;;;;;;;18.10;9.02;;;12.70;99.90;;;;;;5039159;28;20099;-72
2024/03/21 03:09:28;;;;;;;16.60;9.15;;;12.70;99.90;;;;;;5035396;28;20060;-70
2024/03/21 03:11:54;;;;;;;16.15;8.60;;;12.70;99.90;;;;;;5040732;28;20029;-70
2024/03/21 03:14:19;;;;;;;16.75;9.18;;;12.60;99.90;;;;;;5039431;28;20052;-71
2024/03/21 03:16:45;;;;;;;20.25;10.32;;;12.60;99.90;;;;;;5038415;28;20029;-70
2024/03/21 03:19:11;;;;;;;18.05;8.80;;;12.60;99.90;;;;;;5038382;28;20033;-71
2024/03/21 03:21:37;;;;;;;16.48;9.13;;;12.50;99.90;;;;;;5038632;28;20032;-70
2024/03/21 03:24:03;;;;;;;30.58;9.75;;;12.50;99.90;;;;;;5039864;28;20033;-71
2024/03/21 03:26:29;;;;;;;21.17;9.77;;;12.50;99.90;;;;;;5036592;28;20025;-70
2024/03/21 03:28:55;;;;;;;18.38;9.43;;;12.40;99.90;;;;;;5037441;28;20025;-71
2024/03/21 03:31:21;;;;;;;22.20;10.88;;;12.40;99.90;;;;;;5039615;28;20475;-69
2024/03/21 03:36:32;;;;;;;20.05;8.75;;;12.30;99.90;;;;;;5039492;28;20057;-70
2024/03/21 03:38:57;;;;;;;24.83;11.20;;;12.30;99.90;;;;;;5039602;28;20043;-69
2024/03/21 03:41:23;;;;;;;21.50;9.65;;;12.30;99.90;;;;;;5038172;28;20029;-70
2024/03/21 03:43:49;;;;;;;19.83;10.55;;;12.20;99.90;;;;;;5043189;28;20025;-70
2024/03/21 03:46:15;;;;;;;15.50;9.70;;;12.30;99.90;;;;;;5040661;28;20021;-70
2024/03/21 03:48:41;;;;;;;18.50;10.60;;;12.20;99.90;;;;;;5040738;28;20029;-70
2024/03/21 03:51:07;;;;;;;16.55;9.38;;;12.20;99.90;;;;;;5039176;28;20122;-71
2024/03/21 03:53:33;;;;;;;15.60;9.02;;;12.20;99.90;;;;;;5040354;28;20590;-70
2024/03/21 03:55:58;;;;;;;18.17;10.35;;;12.20;99.90;;;;;;5037940;28;20021;-70
2024/03/21 03:58:24;;;;;;;21.30;9.75;;;12.20;99.90;;;;;;5039361;28;20044;-70
2024/03/21 04:00:58;;;;;;;20.27;9.80;;;12.20;99.90;;;;;;5036375;28;20028;-70
2024/03/21 04:03:25;;;;;;;20.17;10.07;;;12.20;99.90;;;;;;5039253;28;20037;-72
2024/03/21 04:06:02;;;;;;;15.13;8.50;;;12.20;99.90;;;;;;5036495;28;20743;-71
2024/03/21 04:08:28;;;;;;;21.17;11.23;;;12.10;99.90;;;;;;5042071;28;20025;-72
2024/03/21 04:10:58;;;;;;;20.25;10.32;;;12.10;99.90;;;;;;5039427;28;20021;-71
2024/03/21 04:13:25;;;;;;;19.88;10.40;;;12.10;99.90;;;;;;5039541;28;20071;-70
2024/03/21 04:15:55;;;;;;;19.95;10.57;;;12.10;99.90;;;;;;5038507;28;20036;-70
2024/03/21 04:18:21;;;;;;;22.00;10.85;;;12.10;99.90;;;;;;5040752;28;20025;-72
2024/03/21 04:20:50;;;;;;;20.80;11.00;;;12.00;99.90;;;;;;5049907;28;20037;-70
2024/03/21 04:23:16;;;;;;;20.92;11.98;;;12.00;99.90;;;;;;5039003;28;20671;-70
2024/03/21 04:25:42;;;;;;;23.25;11.18;;;12.00;99.90;;;;;;5038935;28;20152;-70
2024/03/21 04:28:08;;;;;;;24.75;12.27;;;12.00;99.90;;;;;;5040211;28;20040;-70
2024/03/21 04:30:34;;;;;;;25.17;11.80;;;12.00;99.90;;;;;;5041481;28;20113;-70
2024/03/21 04:32:59;;;;;;;21.67;11.13;;;12.00;99.90;;;;;;5041891;28;20044;-71
2024/03/21 04:35:26;;;;;;;23.65;11.63;;;12.00;99.90;;;;;;5041131;28;20047;-70
2024/03/21 04:37:51;;;;;;;27.67;11.02;;;12.00;99.90;;;;;;5037139;28;20712;-70
2024/03/21 04:40:17;;;;;;;17.40;10.02;;;12.00;99.90;;;;;;5038641;28;20131;-71
2024/03/21 04:42:43;;;;;;;16.65;9.30;;;11.90;99.90;;;;;;5040132;28;20040;-70
2024/03/21 04:45:09;;;;;;;22.45;9.70;;;11.90;99.90;;;;;;5038926;28;20821;-69
2024/03/21 04:47:35;;;;;;;15.32;9.32;;;11.90;99.90;;;;;;5038339;28;20817;-69
2024/03/21 04:50:00;;;;;;;15.63;9.05;;;11.90;99.90;;;;;;5036618;28;20424;-69
2024/03/21 04:52:27;;;;;;;19.00;10.50;;;12.00;99.90;;;;;;5038793;28;20033;-70
2024/03/21 04:54:53;;;;;;;20.13;9.95;;;12.00;99.90;;;;;;5040075;28;20429;-71
2024/03/21 04:57:19;;;;;;;19.42;10.63;;;11.90;99.90;;;;;;5042505;28;20580;-71
2024/03/21 04:59:45;;;;;;;20.75;9.95;;;12.00;99.90;;;;;;5038616;28;20037;-71
2024/03/21 05:02:11;;;;;;;20.73;11.05;;;12.00;99.90;;;;;;5040364;28;20072;-71
2024/03/21 05:04:37;;;;;;;23.25;11.02;;;12.00;99.90;;;;;;5040169;28;20427;-70
2024/03/21 05:07:03;;;;;;;17.92;10.27;;;12.00;99.90;;;;;;5041944;28;20091;-70
2024/03/21 05:09:29;;;;;;;20.20;10.48;;;12.00;99.90;;;;;;5038723;28;20074;-70
2024/03/21 05:11:54;;;;;;;20.58;10.32;;;12.00;99.90;;;;;;5038363;28;20039;-71
2024/03/21 05:14:20;;;;;;;20.67;11.00;;;11.90;99.90;;;;;;5037137;28;20061;-69
2024/03/21 05:16:46;;;;;;;16.30;9.75;;;11.90;99.90;;;;;;5040004;28;20369;-71
2024/03/21 05:19:12;;;;;;;18.75;10.15;;;11.90;99.90;;;;;;5040449;28;20025;-70
2024/03/21 05:21:39;;;;;;;21.10;10.20;;;11.90;99.90;;;;;;5042929;28;20040;-71
2024/03/21 05:24:06;;;;;;;19.20;10.27;;;12.00;99.90;;;;;;5043082;28;20688;-70
2024/03/21 05:26:32;;;;;;;21.95;10.82;;;12.00;99.90;;;;;;5041234;28;20790;-70
2024/03/21 05:28:58;;;;;;;20.95;11.73;;;12.00;99.90;;;;;;5044190;28;20021;-71
2024/03/21 05:31:26;;;;;;;23.50;10.88;;;12.00;99.90;;;;;;5046236;28;20036;-70
2024/03/21 05:33:52;;;;;;;23.13;11.35;;;12.00;99.90;;;;;;5043964;28;20523;-70
2024/03/21 05:36:18;;;;;;;18.38;10.48;;;12.00;99.90;;;;;;5041148;28;20701;-69
2024/03/21 05:38:47;;;;;;;20.05;11.50;;;12.00;99.90;;;;;;5042228;28;20033;-71
2024/03/21 05:41:13;;;;;;;20.52;10.32;;;12.00;99.90;;;;;;5035247;28;20060;-71
2024/03/21 05:43:39;;;;;;;21.17;10.68;;;12.10;99.90;;;;;;5043157;28;20030;-70
2024/03/21 05:46:05;;;;;;;20.02;10.95;;;12.00;99.90;;;;;;5041837;28;20028;-70
2024/03/21 05:48:32;;;;;;;20.20;10.20;;;12.10;99.90;;;;;;5039059;28;20087;-70
2024/03/21 05:50:59;;;;;;;17.58;9.40;;;12.10;99.90;;;;;;5040716;28;20484;-69
2024/03/21 05:53:25;;;;;;;21.40;11.48;;;12.20;99.90;;;;;;5045768;28;20058;-71
2024/03/21 05:56:05;;;;;;;21.05;11.02;;;12.20;99.90;;;;;;5044242;28;20032;-69
2024/03/21 05:58:34;;;;;;;17.33;9.32;;;12.20;99.90;;;;;;5037353;28;20056;-70
2024/03/21 06:03:34;;;;;;;21.67;10.00;;;12.20;99.90;;;;;;5042701;28;20041;-71
2024/03/21 06:06:00;;;;;;;15.98;9.50;;;12.30;99.90;;;;;;5040268;28;20021;-70
2024/03/21 06:08:26;;;;;;;16.45;9.18;;;12.30;99.90;;;;;;5044688;28;20559;-70
2024/03/21 06:10:52;;;;;;;19.23;10.20;;;12.30;99.90;;;;;;5041159;28;20507;-71
2024/03/21 06:13:17;;;;;;;20.73;10.77;;;12.30;99.90;;;;;;5037467;28;20037;-70
2024/03/21 06:15:43;;;;;;;19.33;10.02;;;12.30;99.90;;;;;;5038738;28;20068;-71
2024/03/21 06:18:09;;;;;;;19.23;10.38;;;12.30;99.90;;;;;;5042064;28;20143;-71
2024/03/21 06:20:35;;;;;;;19.42;9.73;;;12.30;99.90;;;;;;5044713;28;20025;-70
2024/03/21 06:23:01;;;;;;;18.77;10.25;;;12.30;99.90;;;;;;5039241;28;20696;-70
2024/03/21 06:25:26;;;;;;;19.38;10.05;;;12.30;99.90;;;;;;5039458;28;20029;-69
2024/03/21 06:27:52;;;;;;;25.10;11.95;;;12.40;99.90;;;;;;5040631;28;20176;-69
2024/03/21 06:30:18;;;;;;;21.70;11.18;;;12.40;99.90;;;;;;5035779;28;20025;-71
2024/03/21 06:32:44;;;;;;;21.30;12.05;;;12.50;99.90;;;;;;5039297;28;20502;-71
2024/03/21 06:35:10;;;;;;;40.15;19.98;;;12.50;99.90;;;;;;5041598;28;20033;-70
2024/03/21 06:37:37;;;;;;;47.10;21.30;;;12.50;99.90;;;;;;5040102;28;20026;-70
2024/03/21 06:40:04;;;;;;;44.58;18.90;;;12.50;99.90;;;;;;5041164;28;20037;-71
2024/03/21 06:42:31;;;;;;;37.35;18.00;;;12.40;99.90;;;;;;5043964;28;20029;-70
2024/03/21 06:45:01;;;;;;;41.05;18.88;;;12.30;99.90;;;;;;5041736;28;20039;-69
2024/03/21 06:47:27;;;;;;;29.80;14.88;;;12.30;99.90;;;;;;5039037;28;20021;-69
2024/03/21 06:49:56;;;;;;;35.03;15.25;;;12.30;99.90;;;;;;5038995;28;20033;-70
2024/03/21 06:52:22;;;;;;;40.92;16.83;;;12.30;99.90;;;;;;5040888;28;20489;-71
2024/03/21 06:54:48;;;;;;;46.45;18.02;;;12.30;99.90;;;;;;5040204;28;20112;-72
2024/03/21 06:57:13;;;;;;;80.80;28.83;;;12.30;99.90;;;;;;5040991;28;20120;-70
2024/03/21 06:59:39;;;;;;;66.78;26.83;;;12.40;99.90;;;;;;5042272;28;20060;-70
2024/03/21 07:02:06;;;;;;;105.68;39.28;;;12.40;99.90;;;;;;5039965;28;20472;-70
2024/03/21 07:04:32;;;;;;;63.13;26.90;;;12.40;99.90;;;;;;5040155;28;20021;-70
2024/03/21 07:06:58;;;;;;;36.33;16.38;;;12.40;99.90;;;;;;5039742;28;20025;-70
2024/03/21 07:09:23;;;;;;;26.70;13.98;;;12.40;99.90;;;;;;5038432;28;20059;-70
2024/03/21 07:11:50;;;;;;;29.15;13.38;;;12.40;99.90;;;;;;5040908;28;20521;-70
2024/03/21 07:14:16;;;;;;;24.55;12.43;;;12.40;99.90;;;;;;5038350;28;20017;-70
2024/03/21 07:16:42;;;;;;;21.10;10.77;;;12.40;99.90;;;;;;5040004;28;20025;-71
2024/03/21 07:19:08;;;;;;;23.15;11.65;;;12.30;99.90;;;;;;5034926;28;20029;-70
2024/03/21 07:21:34;;;;;;;24.10;11.75;;;12.30;99.90;;;;;;5036129;28;20029;-70
2024/03/21 07:24:00;;;;;;;27.25;12.05;;;12.20;99.90;;;;;;5039289;28;20033;-71
2024/03/21 07:26:26;;;;;;;24.17;11.95;;;12.30;99.90;;;;;;5038441;28;20025;-70
2024/03/21 07:28:51;;;;;;;29.10;13.90;;;12.20;99.90;;;;;;5040478;28;20025;-71
2024/03/21 07:31:17;;;;;;;24.90;12.93;;;12.20;99.90;;;;;;5041721;28;20090;-70
2024/03/21 07:33:45;;;;;;;30.92;13.20;;;12.30;99.90;;;;;;5037509;28;20032;-70
2024/03/21 07:36:11;;;;;;;25.13;12.95;;;12.30;99.90;;;;;;5036754;28;20029;-70
2024/03/21 07:38:37;;;;;;;34.08;14.15;;;12.20;99.90;;;;;;5037486;28;20029;-70
2024/03/21 07:41:03;;;;;;;28.83;14.10;;;12.20;99.90;;;;;;5036352;28;20621;-70
2024/03/21 07:43:29;;;;;;;31.98;17.05;;;12.10;99.90;;;;;;5035205;28;21152;-68
2024/03/21 07:45:54;;;;;;;32.10;17.23;;;11.90;99.90;;;;;;5033273;28;20028;-70
2024/03/21 07:48:21;;;;;;;25.60;14.88;;;11.90;99.90;;;;;;5038796;28;20029;-68
2024/03/21 07:50:47;;;;;;;25.52;15.80;;;11.80;99.90;;;;;;5026634;28;20021;-70
2024/03/21 07:53:13;;;;;;;25.33;13.63;;;11.90;99.90;;;;;;5039553;28;20663;-70
2024/03/21 07:55:39;;;;;;;23.85;12.45;;;11.90;99.90;;;;;;5036872;28;20110;-71
2024/03/21 07:58:05;;;;;;;27.25;13.48;;;11.90;99.90;;;;;;5039267;28;20029;-69
2024/03/21 08:00:31;;;;;;;22.50;12.00;;;11.90;99.90;;;;;;5037940;28;20510;-70
2024/03/21 08:02:57;;;;;;;31.83;16.13;;;12.00;99.90;;;;;;5038419;28;20070;-71
2024/03/21 08:05:23;;;;;;;27.30;13.75;;;12.00;99.90;;;;;;5038914;28;20037;-71
2024/03/21 08:07:49;;;;;;;35.53;17.52;;;12.00;99.90;;;;;;5041290;28;20036;-71
2024/03/21 08:10:15;;;;;;;33.53;17.95;;;12.10;99.90;;;;;;5036874;28;20021;-70
2024/03/21 08:12:41;;;;;;;31.15;18.50;;;12.10;99.90;;;;;;5040785;28;20056;-70
2024/03/21 08:15:08;;;;;;;32.92;17.20;;;12.10;99.90;;;;;;5040876;28;20072;-69
2024/03/21 08:17:34;;;;;;;27.25;14.93;;;12.10;99.90;;;;;;5042230;28;20123;-70
2024/03/21 08:20:01;;;;;;;34.05;17.88;;;12.20;99.90;;;;;;5037719;28;20479;-69
2024/03/21 08:22:27;;;;;;;30.05;15.98;;;12.20;99.90;;;;;;5040761;28;20021;-69
2024/03/21 08:24:53;;;;;;;57.95;26.85;;;12.20;99.90;;;;;;5041811;28;20131;-69
2024/03/21 08:27:19;;;;;;;50.05;25.23;;;12.30;99.90;;;;;;5040448;28;20179;-70
2024/03/21 08:29:46;;;;;;;54.63;25.33;;;12.30;99.90;;;;;;5038332;28;20051;-69
2024/03/21 08:32:13;;;;;;;53.03;26.17;;;12.30;99.90;;;;;;5040489;28;20029;-69
2024/03/21 08:34:39;;;;;;;42.35;22.27;;;12.40;99.90;;;;;;5039664;28;20024;-69
2024/03/21 08:37:05;;;;;;;40.67;20.25;;;12.40;99.90;;;;;;5036203;28;20087;-70
2024/03/21 08:39:30;;;;;;;36.83;17.42;;;12.40;99.90;;;;;;5037372;28;20030;-69
2024/03/21 08:41:56;;;;;;;26.98;15.55;;;12.40;99.90;;;;;;5038412;28;20037;-69
2024/03/21 08:44:22;;;;;;;30.95;16.80;;;12.40;99.90;;;;;;5039368;28;20108;-68
2024/03/21 08:46:48;;;;;;;29.52;15.65;;;12.40;99.90;;;;;;5039306;28;20029;-68
2024/03/21 08:49:14;;;;;;;24.05;13.73;;;12.50;99.90;;;;;;5037814;28;20029;-68
2024/03/21 08:51:40;;;;;;;25.90;12.45;;;12.50;99.90;;;;;;5038496;28;20025;-70
2024/03/21 08:54:08;;;;;;;22.90;11.75;;;12.50;99.90;;;;;;5044421;28;20024;-70
2024/03/21 08:56:34;;;;;;;26.05;15.38;;;12.50;99.90;;;;;;5042462;28;20032;-68
2024/03/21 08:59:01;;;;;;;22.33;13.45;;;12.50;99.90;;;;;;5042029;28;20400;-70
2024/03/21 09:01:26;;;;;;;21.58;12.48;;;12.50;99.90;;;;;;5035492;28;20029;-70
2024/03/21 09:03:52;;;;;;;25.02;13.88;;;12.60;99.90;;;;;;5036015;28;20064;-70
2024/03/21 09:06:18;;;;;;;21.45;12.32;;;12.60;99.90;;;;;;5042248;28;20082;-70
2024/03/21 09:08:45;;;;;;;19.48;11.57;;;12.50;99.90;;;;;;5040939;28;20072;-69
2024/03/21 09:11:10;;;;;;;24.23;12.38;;;12.60;99.90;;;;;;5024668;28;20041;-69
2024/03/21 09:13:36;;;;;;;26.75;14.40;;;12.70;99.90;;;;;;5038087;28;20036;-70
2024/03/21 09:16:02;;;;;;;25.80;14.27;;;12.70;99.90;;;;;;5041403;28;20057;-70
2024/03/21 09:18:28;;;;;;;21.65;13.10;;;12.70;99.90;;;;;;5041422;28;20037;-70
2024/03/21 09:20:57;;;;;;;25.83;14.20;;;12.70;99.90;;;;;;5040496;28;20103;-70
2024/03/21 09:23:24;;;;;;;23.92;12.93;;;12.70;99.90;;;;;;5040394;28;20500;-69
2024/03/21 09:25:49;;;;;;;21.25;12.73;;;12.80;99.90;;;;;;5040392;28;20021;-71
2024/03/21 09:28:15;;;;;;;22.02;12.35;;;12.90;99.90;;;;;;5040398;28;20052;-70
2024/03/21 09:30:44;;;;;;;24.25;12.93;;;13.10;99.90;;;;;;5040630;28;20259;-70
2024/03/21 09:33:11;;;;;;;24.67;13.90;;;13.20;99.90;;;;;;5040508;28;20032;-69
2024/03/21 09:35:37;;;;;;;26.98;13.13;;;13.30;99.90;;;;;;5042529;28;20139;-70
2024/03/21 09:38:03;;;;;;;20.52;12.55;;;13.40;99.90;;;;;;5040052;28;20025;-72
2024/03/21 09:40:30;;;;;;;21.02;12.10;;;13.50;99.90;;;;;;5038888;28;20033;-69
2024/03/21 09:42:56;;;;;;;18.38;12.02;;;13.70;99.90;;;;;;5040238;28;20761;-70
2024/03/21 09:45:24;;;;;;;23.52;12.55;;;13.90;99.90;;;;;;5037796;28;20396;-69
2024/03/21 09:47:50;;;;;;;19.83;12.00;;;14.10;99.90;;;;;;5040613;28;20068;-69
2024/03/21 09:50:18;;;;;;;21.05;12.02;;;14.30;99.90;;;;;;5037283;28;20040;-70
2024/03/21 09:52:44;;;;;;;19.50;11.05;;;14.40;99.90;;;;;;5041589;28;20808;-70
2024/03/21 09:55:14;;;;;;;17.95;10.15;;;14.60;99.90;;;;;;5038514;28;20029;-69
2024/03/21 09:57:41;;;;;;;19.65;10.23;;;14.70;99.90;;;;;;5041054;28;20029;-70
2024/03/21 10:00:12;;;;;;;18.42;10.07;;;15.00;99.90;;;;;;5041062;28;20472;-71
2024/03/21 10:02:44;;;;;;;15.70;9.55;;;15.40;99.90;;;;;;5040108;28;20072;-70
2024/03/21 10:05:23;;;;;;;16.98;9.48;;;15.80;99.90;;;;;;5041121;28;20063;-70
2024/03/21 10:07:49;;;;;;;17.75;9.70;;;16.20;99.90;;;;;;5056668;28;20036;-71
2024/03/21 10:10:15;;;;;;;14.90;8.82;;;16.80;99.90;;;;;;5040493;28;20033;-69
2024/03/21 10:12:41;;;;;;;12.10;7.50;;;17.40;99.90;;;;;;5040292;28;20077;-70
2024/03/21 10:15:12;;;;;;;11.40;6.80;;;18.10;99.90;;;;;;5041411;28;20061;-71
2024/03/21 10:17:38;;;;;;;11.98;6.88;;;19.30;99.90;;;;;;5042314;28;20511;-71
2024/03/21 10:20:04;;;;;;;9.77;6.10;;;20.20;99.90;;;;;;5038554;28;20029;-70
2024/03/21 10:22:31;;;;;;;7.40;4.40;;;21.00;99.90;;;;;;5037641;28;20037;-70
2024/03/21 10:24:57;;;;;;;7.07;4.07;;;21.40;99.90;;;;;;5041662;28;20037;-71
2024/03/21 10:27:23;;;;;;;6.00;3.15;;;21.80;99.90;;;;;;5041373;28;20055;-70
2024/03/21 10:29:55;;;;;;;11.93;4.60;;;21.50;97.90;;;;;;5038523;28;20807;-71
2024/03/21 10:32:21;;;;;;;5.20;3.28;;;21.30;99.90;;;;;;5036599;28;20124;-71
2024/03/21 10:34:49;;;;;;;8.70;3.70;;;22.20;99.60;;;;;;5040626;28;20104;-71
2024/03/21 10:37:19;;;;;;;9.20;4.20;;;22.70;97.60;;;;;;5036891;28;20025;-70
2024/03/21 10:39:49;;;;;;;6.45;2.90;;;22.20;96.80;;;;;;5037982;28;20044;-70
2024/03/21 10:42:26;;;;;;;14.70;4.65;;;22.50;96.50;;;;;;5040047;28;20760;-72
2024/03/21 10:44:56;;;;;;;5.65;1.92;;;22.40;95.40;;;;;;5039049;28;20036;-72
2024/03/21 10:47:22;;;;;;;11.73;4.05;;;21.90;95.20;;;;;;5040158;28;20130;-70
2024/03/21 10:49:49;;;;;;;5.38;2.95;;;21.70;95.40;;;;;;5040235;28;20122;-71
2024/03/21 10:52:15;;;;;;;5.80;2.63;;;21.10;97.10;;;;;;5038822;28;20741;-72
2024/03/21 10:54:41;;;;;;;5.97;2.92;;;21.10;99.50;;;;;;5038783;28;20036;-72
2024/03/21 10:57:24;;;;;;;7.80;3.78;;;21.30;97.80;;;;;;5037689;28;20056;-72
2024/03/21 11:00:12;;;;;;;5.43;2.28;;;21.30;96.90;;;;;;5037964;28;20082;-72
2024/03/21 11:02:42;;;;;;;3.28;2.53;;;21.80;97.50;;;;;;5036400;28;20082;-72
2024/03/21 11:05:16;;;;;;;3.70;1.95;;;22.70;96.00;;;;;;5043155;28;20518;-72
2024/03/21 11:07:44;;;;;;;3.53;2.33;;;22.50;94.60;;;;;;5038191;28;20029;-72
2024/03/21 11:10:19;;;;;;;2.58;1.92;;;21.50;97.50;;;;;;5039106;28;20025;-71
2024/03/21 11:12:45;;;;;;;4.00;2.80;;;20.80;97.60;;;;;;5040716;28;20029;-72
2024/03/21 11:15:12;;;;;;;5.85;2.67;;;20.50;99.00;;;;;;5040545;28;20040;-72
2024/03/21 11:17:43;;;;;;;5.13;3.00;;;20.20;98.90;;;;;;5040745;28;20029;-72
2024/03/21 11:20:10;;;;;;;5.38;2.42;;;19.80;99.10;;;;;;5038169;28;20107;-72
2024/03/21 11:22:44;;;;;;;3.70;2.50;;;19.10;99.90;;;;;;5036016;28;20487;-71
2024/03/21 11:25:14;;;;;;;4.90;2.63;;;18.90;99.90;;;;;;5037944;28;20024;-72
2024/03/21 11:27:41;;;;;;;3.90;2.70;;;18.90;99.90;;;;;;5039670;28;20487;-71
2024/03/21 11:30:09;;;;;;;3.63;2.65;;;18.80;99.90;;;;;;5040272;28;20538;-70
2024/03/21 11:32:34;;;;;;;4.03;3.15;;;18.70;99.90;;;;;;5039967;28;20048;-70
2024/03/21 11:35:00;;;;;;;4.07;3.28;;;18.70;99.90;;;;;;5036946;28;20094;-72
2024/03/21 11:37:26;;;;;;;4.85;3.70;;;18.80;99.90;;;;;;5037631;28;20672;-71
2024/03/21 11:39:52;;;;;;;6.60;4.22;;;18.80;99.90;;;;;;5039283;28;20037;-71
2024/03/21 11:42:18;;;;;;;9.23;3.35;;;18.80;99.90;;;;;;5037444;28;20025;-71
2024/03/21 11:44:46;;;;;;;8.07;3.63;;;18.80;99.90;;;;;;5039055;28;20606;-71
2024/03/21 11:47:16;;;;;;;5.18;3.65;;;18.50;99.90;;;;;;5036018;28;20518;-71
2024/03/21 11:49:52;;;;;;;7.97;4.55;;;18.40;99.90;;;;;;5034435;28;20033;-72
2024/03/21 11:52:19;;;;;;;5.70;4.18;;;18.40;99.90;;;;;;5039887;28;20219;-71
2024/03/21 11:54:46;;;;;;;9.00;4.15;;;18.20;99.90;;;;;;5038262;28;20037;-71
2024/03/21 11:57:14;;;;;;;5.53;4.35;;;18.10;99.90;;;;;;5040538;28;20033;-71
2024/03/21 11:59:43;;;;;;;7.57;4.70;;;18.20;99.90;;;;;;5040102;28;20442;-72
2024/03/21 12:02:13;;;;;;;6.50;4.60;;;18.20;99.90;;;;;;5036912;28;20043;-72
2024/03/21 12:04:40;;;;;;;5.35;3.78;;;18.10;99.90;;;;;;5037738;28;20060;-72
2024/03/21 12:07:10;;;;;;;6.43;4.82;;;18.20;99.90;;;;;;5037755;28;20393;-72
2024/03/21 12:09:36;;;;;;;6.55;4.70;;;18.00;99.90;;;;;;5035505;28;20029;-71
2024/03/21 12:12:02;;;;;;;6.97;4.30;;;18.00;99.90;;;;;;5040175;28;20083;-71
2024/03/21 12:14:28;;;;;;;7.72;5.05;;;17.90;99.90;;;;;;5039285;28;20086;-72
2024/03/21 12:16:53;;;;;;;5.45;4.03;;;17.80;99.90;;;;;;5038171;28;20033;-72
2024/03/21 12:19:19;;;;;;;9.63;4.93;;;17.70;99.90;;;;;;5038425;28;20036;-71
2024/03/21 12:21:45;;;;;;;9.10;5.10;;;17.40;99.90;;;;;;5039228;28;20546;-70
2024/03/21 12:24:12;;;;;;;8.55;5.47;;;17.30;99.90;;;;;;5036792;28;20400;-72
2024/03/21 12:26:38;;;;;;;9.35;6.38;;;17.10;99.90;;;;;;5039012;28;20033;-71
2024/03/21 12:29:03;;;;;;;8.98;5.28;;;17.10;99.90;;;;;;5040336;28;20104;-73
2024/03/21 12:31:29;;;;;;;9.57;6.45;;;17.00;99.90;;;;;;5041082;28;20064;-71
2024/03/21 12:33:56;;;;;;;10.93;6.32;;;16.90;99.90;;;;;;5035533;28;20063;-71
2024/03/21 12:36:22;;;;;;;7.97;5.43;;;16.90;99.90;;;;;;5043309;28;20032;-70